Flag for Portugal

Past Weather in Braga, Portugal — Yesterday and Last 2 Weeks

Currently: 41 °F. Clear. (Weather station: Porto / Pedras Rubras, Portugal). See more current weather

Past Weather in Braga — Graph

°F

Braga Temperature Yesterday

Maximum temperature yesterday: 57 °F (at 1:30 pm)
Minimum temperature yesterday: 30 °F (at 5:30 am)
Average temperature yesterday: 43 °F

High & Low Weather Summary for the Past Weeks

 TemperatureHumidityPressure
High57 °F (Jan 17, 1:30 pm)100% (Jan 3, 12:30 am)30.51 "Hg (Jan 3, 12:30 am)
Low28 °F (Jan 9, 6:00 am)37% (Jan 8, 1:00 pm)29.74 "Hg (Jan 9, 1:00 pm)
Average41 °F78%30.15 "Hg
* Reported Jan 3 12:00 am — Jan 18 12:30 am, Braga. Weather by CustomWeather, © 2021

Note: Actual official high and low records may vary slightly from our data, if they occured in-between our weather recording intervals... More about our weather records

Braga Weather History for the Previous 24 Hours

Scroll right to see more
 ConditionsComfort  
Time TempWeatherWind HumidityBarometerVisibility
12:30 am
Mon, Jan 18
43 °FClear.12 mph81%30.36 "Hg5 mi
12:00 am43 °FClear.8 mph87%30.36 "Hg5 mi
11:30 pm
Sun, Jan 17
43 °FClear.3 mph81%30.36 "Hg5 mi
11:00 pm45 °FClear.3 mph81%30.36 "Hg5 mi
10:30 pm45 °FClear.2 mph81%30.39 "Hg5 mi
10:00 pm41 °FClear.2 mph87%30.36 "Hg4 mi
9:30 pm45 °FClear.1 mph87%30.36 "Hg4 mi
9:00 pm45 °FClear.No wind87%30.36 "Hg4 mi
8:30 pm43 °FClear.3 mph87%30.36 "Hg4 mi
8:00 pm45 °FClear.2 mph93%30.36 "Hg4 mi
7:30 pm41 °FFog.3 mph93%30.39 "Hg3 mi
7:00 pm45 °FClear.No wind87%30.39 "Hg5 mi
6:30 pm45 °FClear.No wind87%30.39 "Hg6 mi
6:00 pm48 °FClear.3 mph76%30.36 "Hg10 mi
5:30 pm50 °FSunny.No wind71%30.36 "Hg10 mi
5:00 pm54 °FSunny.No wind63%30.36 "Hg10 mi
4:30 pm55 °FSunny.2 mph63%30.36 "Hg10 mi
4:00 pm54 °FPassing clouds.3 mph67%30.36 "HgN/A
3:30 pm54 °FPassing clouds.5 mph67%30.36 "HgN/A
3:00 pm54 °FPassing clouds.3 mph63%30.39 "HgN/A
2:30 pm55 °FClear.5 mph63%30.39 "Hg6 mi
2:00 pm55 °FClear.2 mph63%30.39 "Hg6 mi
1:30 pm57 °FPassing clouds.3 mph55%30.39 "HgN/A
1:00 pm54 °FSunny.No wind63%30.42 "Hg10 mi
12:30 pm54 °FSunny.No wind58%30.42 "Hg10 mi
12:00 pm52 °FPassing clouds.3 mph62%30.45 "HgN/A
11:30 am52 °FPassing clouds.3 mph58%30.45 "HgN/A
11:00 am48 °FSunny.5 mph66%30.45 "Hg10 mi
10:30 am46 °FSunny.6 mph66%30.45 "Hg10 mi
10:00 am43 °FSunny.6 mph76%30.45 "Hg10 mi
9:30 am41 °FSunny.8 mph81%30.45 "Hg10 mi
9:00 am37 °FSunny.9 mph87%30.45 "Hg10 mi
8:30 am37 °FPassing clouds.6 mph87%30.45 "HgN/A
8:00 am34 °FPassing clouds.3 mph87%30.45 "HgN/A
7:30 am36 °FClear.1 mph93%30.42 "Hg10 mi
7:00 am36 °FPassing clouds.5 mph93%30.42 "HgN/A
6:30 am34 °FClear.3 mph100%30.42 "Hg6 mi
6:00 am36 °FClear.2 mph100%30.42 "Hg6 mi
5:30 am30 °FIce fog.3 mph100%30.42 "Hg3 mi
5:00 am32 °FIce fog.3 mph100%30.42 "Hg3 mi
4:30 am34 °FFog.3 mph93%30.42 "Hg2 mi
4:00 am34 °FClear.5 mph87%30.42 "Hg4 mi
3:30 am37 °FClear.5 mph93%30.42 "Hg4 mi
3:00 am37 °FClear.6 mph93%30.42 "Hg5 mi
2:30 am37 °FClear.No wind93%30.42 "Hg4 mi
2:00 am37 °FClear.8 mph93%30.39 "Hg4 mi
Weather by CustomWeather, © 2021

See weather overview